Time;durP1;ratioP1;P1;durP2;ratioP2;P2;SDS_P1;SDS_P2;PMS_P1;PMS_P2;Temp;Humidity;BMP_temperature;BMP_pressure;BME280_temperature;BME280_humidity;BME280_pressure;Samples;Min_cycle;Max_cycle;Signal;HPM_P1;HPM_P2
2023/03/14 00:01:56;;;;;;;21.33;5.47;;;10.20;99.90;;;;;;5073035;28;20128;-36
2023/03/14 00:04:22;;;;;;;19.58;5.28;;;10.20;99.90;;;;;;5077076;28;20074;-35
2023/03/14 00:06:49;;;;;;;12.02;4.05;;;10.20;99.90;;;;;;5078990;28;20413;-35
2023/03/14 00:09:16;;;;;;;21.65;4.85;;;10.30;99.90;;;;;;5076847;28;20500;-35
2023/03/14 00:11:42;;;;;;;16.85;4.60;;;10.40;99.90;;;;;;5071814;28;20486;-36
2023/03/14 00:14:08;;;;;;;16.52;4.97;;;10.30;99.90;;;;;;5084675;28;20032;-36
2023/03/14 00:16:33;;;;;;;20.17;4.90;;;10.40;99.90;;;;;;5071351;28;20040;-36
2023/03/14 00:19:00;;;;;;;16.25;4.85;;;10.40;99.90;;;;;;5071943;28;20041;-36
2023/03/14 00:21:26;;;;;;;24.15;5.60;;;10.40;99.90;;;;;;5079431;28;20113;-36
2023/03/14 00:23:52;;;;;;;17.52;6.75;;;10.50;99.90;;;;;;5071426;28;20045;-36
2023/03/14 00:26:19;;;;;;;20.02;6.70;;;10.40;99.90;;;;;;5081946;28;20104;-37
2023/03/14 00:28:46;;;;;;;16.00;5.65;;;10.30;99.90;;;;;;5072783;28;20036;-36
2023/03/14 00:31:15;;;;;;;17.90;5.75;;;10.30;99.90;;;;;;5080869;28;20034;-37
2023/03/14 00:33:41;;;;;;;15.63;5.40;;;10.20;99.90;;;;;;5081511;28;20485;-38
2023/03/14 00:36:13;;;;;;;15.70;5.43;;;10.20;99.90;;;;;;5082882;28;20039;-39
2023/03/14 00:38:41;;;;;;;21.70;7.15;;;10.10;99.90;;;;;;5063867;28;20037;-37
2023/03/14 00:41:10;;;;;;;18.17;6.20;;;10.10;99.90;;;;;;5070956;28;20039;-37
2023/03/14 00:43:36;;;;;;;18.98;6.45;;;10.10;99.90;;;;;;5083514;28;20079;-37
2023/03/14 00:46:03;;;;;;;16.33;5.90;;;10.00;99.90;;;;;;5070226;28;20471;-38
2023/03/14 00:48:29;;;;;;;16.63;6.05;;;10.00;99.90;;;;;;5071433;28;20036;-37
2023/03/14 00:50:55;;;;;;;14.10;6.47;;;10.00;99.90;;;;;;5071900;28;20085;-39
2023/03/14 00:53:21;;;;;;;13.88;6.20;;;10.00;99.90;;;;;;5064436;28;20067;-36
2023/03/14 00:55:47;;;;;;;16.92;6.57;;;10.00;99.90;;;;;;5076645;28;20473;-36
2023/03/14 00:58:15;;;;;;;17.73;6.95;;;10.00;99.90;;;;;;5067951;28;20040;-37
2023/03/14 01:00:42;;;;;;;13.15;6.30;;;10.00;99.90;;;;;;5074269;28;20041;-37
2023/03/14 01:03:09;;;;;;;16.38;6.97;;;10.00;99.90;;;;;;5081063;28;20370;-36
2023/03/14 01:05:35;;;;;;;17.85;7.47;;;10.00;99.90;;;;;;5083286;28;20035;-37
2023/03/14 01:08:01;;;;;;;15.43;6.60;;;10.00;99.90;;;;;;5078671;28;20032;-37
2023/03/14 01:10:27;;;;;;;13.63;5.10;;;10.00;99.90;;;;;;5081109;28;20036;-37
2023/03/14 01:12:53;;;;;;;8.90;4.80;;;10.00;99.90;;;;;;5075907;28;20033;-37
2023/03/14 01:15:19;;;;;;;13.88;4.80;;;9.90;99.90;;;;;;5065427;28;20390;-37
2023/03/14 01:17:46;;;;;;;9.52;4.57;;;9.80;99.90;;;;;;5071995;28;20036;-37
2023/03/14 01:20:14;;;;;;;18.13;4.88;;;9.80;99.90;;;;;;5070318;28;20120;-37
2023/03/14 01:22:41;;;;;;;14.57;5.10;;;9.70;99.90;;;;;;5073403;28;20093;-37
2023/03/14 01:25:10;;;;;;;10.30;4.78;;;9.60;99.90;;;;;;5075763;28;20032;-37
2023/03/14 01:27:36;;;;;;;13.52;4.93;;;9.60;99.90;;;;;;5061961;28;20037;-37
2023/03/14 01:30:03;;;;;;;13.27;4.88;;;9.50;99.90;;;;;;5078732;28;20067;-42
2023/03/14 01:32:30;;;;;;;15.27;4.93;;;9.50;99.90;;;;;;5069372;28;20486;-37
2023/03/14 01:34:56;;;;;;;11.57;4.32;;;9.40;99.90;;;;;;5070788;28;20505;-37
2023/03/14 01:37:21;;;;;;;13.50;4.90;;;9.40;99.90;;;;;;5077555;28;20437;-37
2023/03/14 01:39:47;;;;;;;10.77;4.97;;;9.40;99.90;;;;;;5069159;28;20044;-36
2023/03/14 01:42:15;;;;;;;15.32;5.10;;;9.30;99.90;;;;;;5076862;28;20085;-37
2023/03/14 01:44:56;;;;;;;15.65;5.68;;;9.30;99.90;;;;;;5068125;28;20075;-36
2023/03/14 01:47:23;;;;;;;16.30;4.93;;;9.20;99.90;;;;;;5067972;28;20052;-36
2023/03/14 01:50:18;;;;;;;15.85;6.45;;;9.20;99.90;;;;;;5071326;28;20475;-37
2023/03/14 01:52:48;;;;;;;14.27;5.93;;;9.20;99.90;;;;;;5063113;28;20032;-37
2023/03/14 01:55:18;;;;;;;13.43;5.75;;;9.20;99.90;;;;;;5068608;28;20065;-36
2023/03/14 01:58:01;;;;;;;17.65;5.47;;;9.30;99.90;;;;;;5074749;28;20040;-37
2023/03/14 02:00:26;;;;;;;18.02;5.72;;;9.30;99.90;;;;;;5067423;28;20106;-37
2023/03/14 02:03:05;;;;;;;11.45;5.50;;;9.40;99.90;;;;;;5054212;28;20041;-39
2023/03/14 02:05:35;;;;;;;19.13;5.70;;;9.50;99.90;;;;;;5065896;28;20036;-39
2023/03/14 02:08:04;;;;;;;12.25;5.57;;;9.50;99.90;;;;;;5081205;28;20036;-36
2023/03/14 02:10:33;;;;;;;15.45;5.28;;;9.50;99.90;;;;;;5074014;28;20043;-36
2023/03/14 02:13:03;;;;;;;13.75;4.72;;;9.50;99.90;;;;;;5054124;28;20071;-37
2023/03/14 02:15:29;;;;;;;13.82;4.97;;;9.60;99.90;;;;;;5075305;28;20406;-38
2023/03/14 02:17:56;;;;;;;12.20;4.43;;;9.60;99.90;;;;;;5073687;28;20047;-39
2023/03/14 02:20:28;;;;;;;18.20;4.68;;;9.70;99.90;;;;;;5076762;28;20040;-37
2023/03/14 02:22:57;;;;;;;13.15;4.82;;;9.60;99.90;;;;;;5073334;28;20105;-38
2023/03/14 02:25:29;;;;;;;12.60;4.25;;;9.60;99.90;;;;;;5074742;28;20047;-36
2023/03/14 02:27:55;;;;;;;15.57;4.68;;;9.60;99.90;;;;;;5069112;28;20040;-37
2023/03/14 02:30:23;;;;;;;16.08;5.20;;;9.70;99.90;;;;;;5071399;28;20035;-36
2023/03/14 02:33:19;;;;;;;17.63;5.60;;;9.70;99.90;;;;;;5078809;28;20401;-36
2023/03/14 02:35:51;;;;;;;12.35;4.35;;;9.70;99.90;;;;;;5068474;28;20040;-37
2023/03/14 02:38:30;;;;;;;10.73;4.15;;;9.70;99.90;;;;;;5061342;28;20481;-36
2023/03/14 02:40:57;;;;;;;10.48;3.50;;;9.70;99.90;;;;;;5082596;28;20183;-36
2023/03/14 02:43:23;;;;;;;10.57;3.53;;;9.80;99.90;;;;;;5078738;28;20035;-36
2023/03/14 02:45:50;;;;;;;9.02;3.30;;;9.80;99.90;;;;;;5082858;28;20032;-36
2023/03/14 02:48:24;;;;;;;10.65;3.70;;;9.80;99.90;;;;;;5074922;28;20040;-39
2023/03/14 02:50:54;;;;;;;9.50;3.58;;;9.80;99.90;;;;;;5071658;28;20037;-36
2023/03/14 02:53:24;;;;;;;5.57;2.60;;;9.70;99.90;;;;;;5076808;28;20059;-39
2023/03/14 02:55:51;;;;;;;11.57;4.18;;;9.70;99.90;;;;;;5072266;28;20032;-37
2023/03/14 02:58:17;;;;;;;6.10;2.83;;;9.70;99.90;;;;;;5060426;28;20039;-36
2023/03/14 03:00:43;;;;;;;10.32;3.47;;;9.60;99.90;;;;;;5065916;28;20037;-36
2023/03/14 03:03:09;;;;;;;9.90;4.20;;;9.70;99.90;;;;;;5069410;28;20093;-36
2023/03/14 03:05:35;;;;;;;9.23;3.42;;;9.60;99.90;;;;;;5068633;28;20041;-37
2023/03/14 03:08:01;;;;;;;8.52;3.50;;;9.60;99.90;;;;;;5078476;28;20091;-36
2023/03/14 03:10:27;;;;;;;9.60;3.10;;;9.50;99.90;;;;;;5073238;28;20518;-36
2023/03/14 03:12:53;;;;;;;8.85;3.58;;;9.50;99.90;;;;;;5084200;28;20128;-36
2023/03/14 03:15:19;;;;;;;5.10;3.20;;;9.50;99.90;;;;;;5050377;28;20103;-36
2023/03/14 03:17:45;;;;;;;8.27;3.40;;;9.50;99.90;;;;;;5050757;28;20036;-38
2023/03/14 03:20:12;;;;;;;9.55;3.95;;;9.40;99.90;;;;;;5061720;28;20076;-37
2023/03/14 03:22:38;;;;;;;7.30;3.75;;;9.40;99.90;;;;;;5065004;28;20440;-36
2023/03/14 03:25:05;;;;;;;10.05;3.80;;;9.40;99.90;;;;;;5069917;28;20100;-36
2023/03/14 03:27:32;;;;;;;7.15;3.90;;;9.40;99.90;;;;;;5063829;28;20038;-36
2023/03/14 03:29:59;;;;;;;8.43;3.67;;;9.40;99.90;;;;;;5073339;28;20029;-36
2023/03/14 03:32:25;;;;;;;12.20;4.20;;;9.40;99.90;;;;;;5075939;28;20028;-36
2023/03/14 03:34:51;;;;;;;7.03;4.00;;;9.40;99.90;;;;;;5077267;28;20052;-36
2023/03/14 03:37:17;;;;;;;9.90;3.65;;;9.40;99.90;;;;;;5070756;28;20036;-36
2023/03/14 03:39:43;;;;;;;12.05;4.68;;;9.40;99.90;;;;;;5056209;28;20037;-36
2023/03/14 03:42:09;;;;;;;12.50;4.07;;;9.40;99.90;;;;;;5071765;28;20037;-36
2023/03/14 03:44:36;;;;;;;12.80;4.10;;;9.30;99.90;;;;;;5069721;28;20325;-37
2023/03/14 03:47:02;;;;;;;11.23;4.40;;;9.30;99.90;;;;;;5086253;28;20383;-38
2023/03/14 03:49:31;;;;;;;11.25;4.30;;;9.30;99.90;;;;;;5077635;28;20041;-37
2023/03/14 03:51:58;;;;;;;11.93;3.65;;;9.30;99.90;;;;;;5057205;28;20037;-37
2023/03/14 03:54:23;;;;;;;9.07;4.03;;;9.20;99.90;;;;;;5062769;28;20111;-37
2023/03/14 03:56:49;;;;;;;16.08;3.80;;;9.30;99.90;;;;;;5074233;28;20384;-37
2023/03/14 03:59:15;;;;;;;16.98;4.85;;;9.30;99.90;;;;;;5070636;28;20043;-36
2023/03/14 04:01:41;;;;;;;9.75;3.80;;;9.30;99.90;;;;;;5061038;28;20048;-36
2023/03/14 04:04:07;;;;;;;10.48;3.55;;;9.30;99.90;;;;;;5079203;28;20035;-37
2023/03/14 04:06:33;;;;;;;10.40;3.63;;;9.30;99.90;;;;;;5083617;28;20040;-36
2023/03/14 04:08:58;;;;;;;9.30;3.55;;;9.30;99.90;;;;;;5070273;28;20043;-37
2023/03/14 04:11:24;;;;;;;7.50;3.25;;;9.30;99.90;;;;;;5068717;28;20300;-37
2023/03/14 04:13:50;;;;;;;12.20;3.67;;;9.30;99.90;;;;;;5078395;28;20523;-37
2023/03/14 04:16:19;;;;;;;11.18;4.30;;;9.30;99.90;;;;;;5083472;28;20032;-37
2023/03/14 04:18:45;;;;;;;10.23;3.92;;;9.20;99.90;;;;;;5084907;28;20032;-36
2023/03/14 04:21:11;;;;;;;10.25;4.18;;;9.20;99.90;;;;;;5062556;28;20043;-36
2023/03/14 04:23:37;;;;;;;9.23;4.10;;;9.20;99.90;;;;;;5078282;28;20032;-37
2023/03/14 04:26:03;;;;;;;8.18;4.40;;;9.20;99.90;;;;;;5077327;28;20045;-36
2023/03/14 04:28:29;;;;;;;9.18;4.40;;;9.20;99.90;;;;;;5068478;28;20032;-36
2023/03/14 04:30:55;;;;;;;9.68;4.32;;;9.20;99.90;;;;;;5076445;28;20073;-36
2023/03/14 04:33:20;;;;;;;8.23;3.78;;;9.20;99.90;;;;;;5085429;28;20066;-36
2023/03/14 04:35:47;;;;;;;10.23;4.60;;;9.20;99.90;;;;;;5079457;28;20526;-36
2023/03/14 04:38:13;;;;;;;7.13;4.80;;;9.20;99.90;;;;;;5075144;28;20428;-37
2023/03/14 04:40:40;;;;;;;9.90;4.80;;;9.20;99.90;;;;;;5068802;28;20044;-36
2023/03/14 04:43:09;;;;;;;15.18;5.63;;;9.20;99.90;;;;;;5079879;28;20457;-37
2023/03/14 04:45:35;;;;;;;6.63;4.40;;;9.20;99.90;;;;;;5070223;28;20518;-37
2023/03/14 04:48:01;;;;;;;12.57;5.07;;;9.40;99.90;;;;;;5076441;28;20067;-37
2023/03/14 04:50:27;;;;;;;7.63;5.43;;;9.20;99.90;;;;;;5074910;28;20042;-37
2023/03/14 04:52:53;;;;;;;9.43;5.57;;;9.20;99.90;;;;;;5074787;28;20036;-37
2023/03/14 04:55:19;;;;;;;10.10;5.18;;;9.20;99.90;;;;;;5074262;28;20124;-36
2023/03/14 04:57:45;;;;;;;10.18;4.95;;;9.20;99.90;;;;;;5066528;28;20054;-36
2023/03/14 05:00:11;;;;;;;9.23;5.05;;;9.20;99.90;;;;;;5067801;28;20069;-36
2023/03/14 05:02:37;;;;;;;9.60;5.28;;;9.20;99.90;;;;;;5083888;28;20036;-37
2023/03/14 05:05:04;;;;;;;13.55;6.22;;;9.20;99.90;;;;;;5063598;28;20048;-36
2023/03/14 05:07:29;;;;;;;8.07;4.70;;;9.20;99.90;;;;;;5076834;28;20036;-37
2023/03/14 05:09:55;;;;;;;10.73;4.65;;;9.20;99.90;;;;;;5078750;28;20548;-37
2023/03/14 05:12:21;;;;;;;10.77;4.57;;;9.20;99.90;;;;;;5062412;28;20031;-36
2023/03/14 05:14:47;;;;;;;10.45;4.88;;;9.20;99.90;;;;;;5086020;28;20067;-35
2023/03/14 05:17:14;;;;;;;9.18;4.18;;;9.20;99.90;;;;;;5080529;28;20066;-36
2023/03/14 05:19:41;;;;;;;10.38;4.57;;;9.10;99.90;;;;;;5079601;28;20120;-36
2023/03/14 05:22:07;;;;;;;11.27;4.95;;;9.10;99.90;;;;;;5070137;28;20036;-37
2023/03/14 05:24:33;;;;;;;9.80;4.53;;;9.10;99.90;;;;;;5078764;28;20032;-37
2023/03/14 05:26:59;;;;;;;9.63;4.75;;;9.20;99.90;;;;;;5076035;28;20583;-36
2023/03/14 05:29:24;;;;;;;8.32;4.57;;;9.20;99.90;;;;;;5063973;28;20037;-37
2023/03/14 05:31:50;;;;;;;11.05;4.22;;;9.10;99.90;;;;;;5081329;28;20032;-37
2023/03/14 05:34:16;;;;;;;9.07;4.07;;;9.20;99.90;;;;;;5066894;28;20067;-36
2023/03/14 05:36:42;;;;;;;11.18;4.15;;;9.10;99.90;;;;;;5053806;28;20025;-37
2023/03/14 05:39:10;;;;;;;12.43;4.30;;;9.10;99.90;;;;;;5071367;28;20552;-36
2023/03/14 05:41:40;;;;;;;10.75;4.55;;;9.10;99.90;;;;;;5067025;28;20048;-36
2023/03/14 05:44:08;;;;;;;13.60;4.70;;;9.10;99.90;;;;;;5067867;28;20048;-36
2023/03/14 05:46:43;;;;;;;10.05;4.10;;;9.10;99.90;;;;;;5061048;28;20438;-36
2023/03/14 05:49:14;;;;;;;11.10;4.40;;;9.10;99.90;;;;;;5068206;28;20171;-36
2023/03/14 05:51:43;;;;;;;12.38;4.10;;;9.10;99.90;;;;;;5061600;28;20112;-37
2023/03/14 05:54:09;;;;;;;12.95;4.35;;;9.10;99.90;;;;;;5062867;28;20389;-36
2023/03/14 05:56:41;;;;;;;12.98;3.97;;;9.10;99.90;;;;;;5071001;28;20379;-37
2023/03/14 05:59:17;;;;;;;8.88;3.50;;;9.10;99.90;;;;;;5061403;28;20044;-36
2023/03/14 06:01:46;;;;;;;16.17;4.65;;;9.10;99.90;;;;;;5060099;28;20433;-36
2023/03/14 06:04:17;;;;;;;11.57;3.55;;;9.10;99.90;;;;;;5054569;28;20094;-36
2023/03/14 06:06:51;;;;;;;9.27;4.07;;;9.10;99.90;;;;;;5068469;28;20398;-37
2023/03/14 06:09:36;;;;;;;16.45;4.30;;;9.10;99.90;;;;;;5065782;28;20507;-36
2023/03/14 06:12:09;;;;;;;9.23;3.33;;;9.10;99.90;;;;;;5057982;28;20037;-36
2023/03/14 06:14:44;;;;;;;14.90;4.10;;;9.10;99.90;;;;;;5065826;28;20094;-37
2023/03/14 06:17:12;;;;;;;10.73;3.85;;;9.10;99.90;;;;;;5061441;28;20032;-36
2023/03/14 06:19:38;;;;;;;15.27;4.25;;;9.10;99.90;;;;;;5055828;28;20493;-37
2023/03/14 06:22:25;;;;;;;13.88;4.30;;;9.10;99.90;;;;;;5058663;28;20029;-36
2023/03/14 06:24:52;;;;;;;12.63;4.50;;;9.10;99.90;;;;;;5059621;28;20389;-38
2023/03/14 06:27:18;;;;;;;13.35;4.78;;;9.20;99.90;;;;;;5039130;28;20072;-36
2023/03/14 06:29:44;;;;;;;9.75;3.90;;;9.10;99.90;;;;;;5058597;28;20083;-37
2023/03/14 06:32:10;;;;;;;11.73;5.22;;;9.20;99.90;;;;;;5051667;28;20069;-37
2023/03/14 06:34:35;;;;;;;10.18;5.15;;;9.20;99.90;;;;;;5056632;28;20068;-37
2023/03/14 06:37:01;;;;;;;10.05;5.20;;;9.20;99.90;;;;;;5058601;28;20033;-36
2023/03/14 06:39:27;;;;;;;12.20;5.03;;;9.10;99.90;;;;;;5058441;28;20045;-36
2023/03/14 06:41:53;;;;;;;14.75;5.28;;;9.10;99.90;;;;;;5039866;28;20098;-36
2023/03/14 06:44:19;;;;;;;11.25;5.30;;;9.10;99.90;;;;;;5053835;28;20049;-39
2023/03/14 06:46:45;;;;;;;6.97;4.00;;;9.20;99.90;;;;;;5064174;28;20091;-37
2023/03/14 06:49:11;;;;;;;12.05;4.90;;;9.10;99.90;;;;;;5057505;28;20410;-36
2023/03/14 06:51:37;;;;;;;9.75;4.22;;;9.10;99.90;;;;;;5055041;28;20029;-36
2023/03/14 06:54:03;;;;;;;11.65;4.63;;;9.20;99.90;;;;;;5062192;28;20040;-37
2023/03/14 06:56:29;;;;;;;6.53;3.80;;;9.20;99.90;;;;;;5058923;28;20043;-36
2023/03/14 06:58:54;;;;;;;7.68;4.15;;;9.20;99.90;;;;;;5059197;28;20124;-37
2023/03/14 07:01:26;;;;;;;8.65;4.25;;;9.20;99.90;;;;;;5058789;28;20047;-37
2023/03/14 07:03:52;;;;;;;10.95;4.97;;;9.20;99.90;;;;;;5055822;28;20041;-37
2023/03/14 07:06:18;;;;;;;12.48;4.90;;;9.20;99.90;;;;;;5061719;28;20496;-37
2023/03/14 07:08:44;;;;;;;11.68;4.97;;;9.30;99.90;;;;;;5058275;28;20037;-37
2023/03/14 07:11:12;;;;;;;10.25;5.35;;;9.30;99.90;;;;;;5060740;28;20029;-37
2023/03/14 07:13:39;;;;;;;16.27;6.03;;;9.20;99.90;;;;;;5062271;28;20032;-36
2023/03/14 07:16:05;;;;;;;8.13;5.32;;;9.20;99.90;;;;;;5062633;28;20127;-37
2023/03/14 07:18:31;;;;;;;9.18;5.07;;;9.30;99.90;;;;;;5072452;28;20040;-36
2023/03/14 07:20:57;;;;;;;8.48;4.45;;;9.30;99.90;;;;;;5064863;28;20051;-37
2023/03/14 07:23:22;;;;;;;8.80;4.93;;;9.30;99.90;;;;;;5056382;28;20037;-36
2023/03/14 07:25:48;;;;;;;9.68;5.40;;;9.30;99.90;;;;;;5074542;28;20453;-36
2023/03/14 07:28:14;;;;;;;10.65;5.22;;;9.30;99.90;;;;;;5062198;28;20122;-37
2023/03/14 07:30:39;;;;;;;9.40;3.63;;;9.20;99.90;;;;;;5064410;28;20044;-37
2023/03/14 07:33:05;;;;;;;4.78;2.75;;;9.20;99.90;;;;;;5056271;28;20033;-36
2023/03/14 07:35:31;;;;;;;4.07;1.65;;;9.00;99.90;;;;;;5073835;28;20033;-37
2023/03/14 07:37:56;;;;;;;5.03;1.73;;;8.90;99.90;;;;;;5071369;28;20509;-36
2023/03/14 07:40:22;;;;;;;3.08;1.48;;;8.90;99.90;;;;;;5080566;28;20115;-36
2023/03/14 07:42:49;;;;;;;2.78;1.48;;;8.80;99.90;;;;;;5077001;28;20032;-36
2023/03/14 07:45:15;;;;;;;4.28;1.73;;;8.70;99.90;;;;;;5077644;28;20036;-37
2023/03/14 07:47:41;;;;;;;3.40;1.75;;;8.70;99.90;;;;;;5073517;28;20080;-36
2023/03/14 07:50:08;;;;;;;3.92;1.50;;;8.60;99.90;;;;;;5078383;28;20083;-37
2023/03/14 07:52:33;;;;;;;2.65;1.30;;;8.50;99.90;;;;;;5081144;28;20037;-37
2023/03/14 07:54:59;;;;;;;3.35;1.00;;;8.40;99.90;;;;;;5072091;28;20042;-36
2023/03/14 07:57:25;;;;;;;2.38;0.98;;;8.30;99.90;;;;;;5074108;28;20031;-36
2023/03/14 07:59:51;;;;;;;2.45;1.00;;;8.10;99.90;;;;;;5071644;28;20037;-37
2023/03/14 08:02:17;;;;;;;3.83;1.10;;;7.90;99.90;;;;;;5077153;28;20111;-36
2023/03/14 08:04:43;;;;;;;3.58;1.30;;;7.70;99.90;;;;;;5074262;28;20064;-36
2023/03/14 08:07:09;;;;;;;3.60;0.90;;;7.60;99.90;;;;;;5060984;28;20070;-36
2023/03/14 08:09:35;;;;;;;4.03;1.30;;;7.40;99.90;;;;;;5068758;28;20606;-37
2023/03/14 08:12:00;;;;;;;1.52;0.65;;;7.20;99.90;;;;;;5064806;28;20090;-36
2023/03/14 08:14:26;;;;;;;5.45;0.93;;;7.00;99.90;;;;;;5073498;28;20036;-37
2023/03/14 08:16:52;;;;;;;7.88;1.15;;;6.80;99.90;;;;;;5072217;28;20494;-37
2023/03/14 08:19:18;;;;;;;4.13;1.00;;;6.70;99.90;;;;;;5081711;28;20119;-36
2023/03/14 08:21:44;;;;;;;2.20;0.63;;;6.60;99.90;;;;;;5069069;28;20136;-36
2023/03/14 08:24:09;;;;;;;2.67;0.70;;;6.50;99.90;;;;;;5063879;28;20040;-37
2023/03/14 08:26:35;;;;;;;2.35;0.90;;;6.40;99.90;;;;;;5081607;28;20045;-36
2023/03/14 08:29:01;;;;;;;3.15;0.60;;;6.40;99.90;;;;;;5066873;28;20483;-36
2023/03/14 08:31:27;;;;;;;3.67;1.02;;;6.30;99.90;;;;;;5068041;28;20047;-36
2023/03/14 08:33:53;;;;;;;2.08;0.70;;;6.20;99.90;;;;;;5076904;28;20040;-37
2023/03/14 08:36:19;;;;;;;1.27;0.88;;;6.20;99.90;;;;;;5081326;28;20112;-36
2023/03/14 08:38:45;;;;;;;1.17;0.60;;;6.20;99.90;;;;;;5084165;28;20093;-36
2023/03/14 08:41:11;;;;;;;2.28;0.40;;;6.10;99.90;;;;;;5077423;28;20032;-36
2023/03/14 08:43:37;;;;;;;2.15;0.50;;;6.00;99.90;;;;;;5084104;28;20205;-36
2023/03/14 08:46:03;;;;;;;0.50;0.30;;;6.00;99.90;;;;;;5060186;28;20033;-35
2023/03/14 08:48:30;;;;;;;3.08;0.50;;;6.00;99.90;;;;;;5080211;28;20067;-37
2023/03/14 08:50:57;;;;;;;2.30;0.50;;;5.90;99.90;;;;;;5067840;28;20033;-36
2023/03/14 08:53:22;;;;;;;1.00;0.30;;;5.90;99.90;;;;;;5074441;28;20499;-36
2023/03/14 08:55:53;;;;;;;1.75;0.73;;;5.80;99.90;;;;;;5069593;28;20115;-35
2023/03/14 08:58:19;;;;;;;1.73;0.50;;;5.80;99.90;;;;;;5073190;28;20036;-36
2023/03/14 09:00:45;;;;;;;2.90;0.70;;;5.80;99.90;;;;;;5082260;28;20466;-36
2023/03/14 09:03:10;;;;;;;2.13;0.60;;;5.80;99.90;;;;;;5057449;28;20036;-36
2023/03/14 09:05:36;;;;;;;1.85;1.08;;;5.80;99.90;;;;;;5074708;28;20044;-36
2023/03/14 09:08:02;;;;;;;2.47;1.10;;;5.80;99.90;;;;;;5086398;28;20104;-35
2023/03/14 09:10:27;;;;;;;1.52;0.82;;;5.80;99.90;;;;;;5068745;28;20040;-36
2023/03/14 09:12:53;;;;;;;3.92;1.20;;;5.90;99.90;;;;;;5084419;28;20392;-35
2023/03/14 09:15:19;;;;;;;2.20;1.00;;;6.00;99.90;;;;;;5074498;28;20390;-35
2023/03/14 09:17:45;;;;;;;1.90;0.90;;;6.10;99.90;;;;;;5087249;28;20061;-36
2023/03/14 09:20:11;;;;;;;1.70;0.98;;;6.10;99.90;;;;;;5071086;28;20036;-36
2023/03/14 09:22:37;;;;;;;4.47;1.08;;;6.20;99.90;;;;;;5066996;28;20046;-36
2023/03/14 09:25:03;;;;;;;3.35;1.17;;;6.20;99.90;;;;;;5084242;28;20039;-36
2023/03/14 09:27:29;;;;;;;2.55;0.90;;;6.20;99.90;;;;;;5062928;28;20052;-35
2023/03/14 09:29:55;;;;;;;4.55;1.08;;;6.30;99.90;;;;;;5085435;28;20036;-36
2023/03/14 09:32:20;;;;;;;3.30;0.85;;;6.40;99.90;;;;;;5077048;28;20044;-36
2023/03/14 09:34:46;;;;;;;3.63;1.35;;;6.50;99.90;;;;;;5082519;28;20032;-36
2023/03/14 09:37:12;;;;;;;2.92;0.98;;;6.70;99.90;;;;;;5078352;28;20032;-36
2023/03/14 09:39:37;;;;;;;3.70;0.93;;;6.70;99.90;;;;;;5068762;28;20556;-36
2023/03/14 09:42:07;;;;;;;3.00;0.90;;;6.70;99.90;;;;;;5084435;28;20082;-36
2023/03/14 09:44:37;;;;;;;5.13;1.33;;;6.60;99.90;;;;;;5074336;28;20461;-36
2023/03/14 09:47:11;;;;;;;5.00;1.17;;;6.60;99.90;;;;;;5081613;28;20115;-35
2023/03/14 09:49:40;;;;;;;3.20;1.30;;;6.60;99.90;;;;;;5079213;28;20504;-37
2023/03/14 09:52:23;;;;;;;4.60;1.02;;;7.00;99.90;;;;;;5089565;28;20425;-36
2023/03/14 09:55:06;;;;;;;7.07;1.55;;;7.40;99.90;;;;;;5074296;28;20033;-36
2023/03/14 09:57:34;;;;;;;7.43;1.97;;;7.90;99.90;;;;;;5072325;28;20323;-36
2023/03/14 10:00:13;;;;;;;6.10;1.65;;;8.00;99.90;;;;;;5074538;28;20286;-36
2023/03/14 10:02:42;;;;;;;7.90;1.77;;;7.90;99.90;;;;;;5072460;28;20035;-36
2023/03/14 10:05:16;;;;;;;8.80;1.77;;;7.60;99.90;;;;;;5067517;28;20076;-37
2023/03/14 10:07:41;;;;;;;;;;;7.50;99.90;;;;;;5072612;28;20078;-36
2023/03/14 10:10:22;;;;;;;9.48;2.28;;;7.40;99.90;;;;;;5083116;28;19959;-35
2023/03/14 10:13:15;;;;;;;12.50;2.67;;;7.60;99.90;;;;;;5060152;28;20032;-35
2023/03/14 10:15:41;;;;;;;17.40;2.42;;;7.80;99.90;;;;;;5071742;28;20035;-35
2023/03/14 10:18:14;;;;;;;12.95;2.47;;;7.80;99.90;;;;;;5071333;28;20048;-34
2023/03/14 10:20:43;;;;;;;11.93;2.80;;;7.70;99.90;;;;;;5068724;28;20041;-34
2023/03/14 10:23:12;;;;;;;14.90;2.83;;;7.60;99.90;;;;;;5051543;28;20045;-34
2023/03/14 10:25:40;;;;;;;11.18;2.95;;;7.60;99.90;;;;;;5066667;28;20070;-35
2023/03/14 10:28:31;;;;;;;8.23;2.40;;;7.80;99.90;;;;;;5063520;28;20421;-35
2023/03/14 10:30:58;;;;;;;15.05;3.03;;;8.00;99.90;;;;;;5057423;28;20036;-33
2023/03/14 10:33:25;;;;;;;12.77;3.30;;;8.10;99.90;;;;;;5084828;28;20060;-34
2023/03/14 10:36:00;;;;;;;16.23;2.70;;;8.00;99.90;;;;;;5090109;28;20036;-34
2023/03/14 10:38:37;;;;;;;13.23;2.67;;;7.90;99.90;;;;;;5090810;28;20043;-35
2023/03/14 10:41:17;;;;;;;18.15;2.65;;;7.90;99.90;;;;;;5058681;28;20043;-34
2023/03/14 10:43:43;;;;;;;13.65;4.05;;;7.90;99.90;;;;;;5091346;28;20500;-34
2023/03/14 10:46:14;;;;;;;15.50;2.60;;;7.90;99.90;;;;;;5058560;28;20501;-35
2023/03/14 10:48:41;;;;;;;11.75;2.92;;;7.90;99.90;;;;;;5070963;28;20397;-35
2023/03/14 10:51:10;;;;;;;16.35;3.25;;;7.80;99.90;;;;;;5070708;28;20060;-34
2023/03/14 10:53:45;;;;;;;10.88;2.92;;;7.60;99.90;;;;;;5070446;28;20039;-34
2023/03/14 10:56:13;;;;;;;10.85;2.80;;;7.50;99.90;;;;;;5070023;28;20394;-35
2023/03/14 10:58:43;;;;;;;17.75;3.10;;;7.30;99.90;;;;;;5050727;28;20612;-35
2023/03/14 11:01:34;;;;;;;12.70;3.22;;;7.30;99.90;;;;;;5051831;28;20040;-34
2023/03/14 11:04:15;;;;;;;15.60;3.15;;;7.40;99.90;;;;;;5070847;28;20044;-35
2023/03/14 11:06:44;;;;;;;14.02;3.40;;;7.50;99.90;;;;;;5070736;28;20047;-35
2023/03/14 11:09:30;;;;;;;14.25;4.13;;;7.60;99.90;;;;;;5081755;28;20079;-34
2023/03/14 11:12:19;;;;;;;12.32;3.47;;;7.60;99.90;;;;;;5073105;28;20044;-34
2023/03/14 11:14:53;;;;;;;15.70;3.10;;;7.70;99.90;;;;;;5070316;28;20036;-34
2023/03/14 11:17:31;;;;;;;13.05;3.17;;;8.00;99.90;;;;;;5053836;28;20075;-35
2023/03/14 11:20:18;;;;;;;15.10;3.38;;;8.40;99.90;;;;;;5054521;28;20487;-34
2023/03/14 11:22:59;;;;;;;15.15;2.35;;;8.70;99.90;;;;;;5065468;28;20120;-34
2023/03/14 11:25:44;;;;;;;10.43;2.40;;;8.80;99.90;;;;;;5070442;28;20175;-34
2023/03/14 11:28:43;;;;;;;8.95;2.63;;;8.60;99.90;;;;;;5070758;28;20366;-34
2023/03/14 11:31:20;;;;;;;10.38;2.65;;;8.50;99.90;;;;;;5061474;28;20430;-34
2023/03/14 11:33:56;;;;;;;8.90;2.30;;;8.40;99.90;;;;;;5070258;28;20139;-34
2023/03/14 11:36:38;;;;;;;9.07;1.95;;;8.50;99.90;;;;;;5070887;28;20041;-34
2023/03/14 11:39:13;;;;;;;9.30;2.03;;;8.60;99.90;;;;;;5070749;28;20045;-35
2023/03/14 11:41:53;;;;;;;10.43;2.80;;;8.70;99.90;;;;;;5076640;28;20058;-34
2023/03/14 11:44:25;;;;;;;12.98;2.08;;;8.70;99.90;;;;;;5070239;28;20052;-34
2023/03/14 11:46:57;;;;;;;13.77;2.58;;;8.60;99.90;;;;;;5070226;28;20072;-34
2023/03/14 11:49:28;;;;;;;11.10;2.20;;;8.40;99.90;;;;;;5070455;28;20439;-35
2023/03/14 11:52:02;;;;;;;7.15;1.98;;;8.50;99.90;;;;;;5074169;28;20115;-34
2023/03/14 11:54:46;;;;;;;8.05;2.10;;;8.70;99.90;;;;;;5074133;28;20048;-35
2023/03/14 11:57:14;;;;;;;;;;;9.10;99.90;;;;;;5074745;28;20036;-34
2023/03/14 11:59:48;;;;;;;9.90;2.20;;;9.50;99.90;;;;;;5059859;28;19930;-34
2023/03/14 12:02:48;;;;;;;9.05;1.75;;;9.70;99.90;;;;;;5063281;28;20037;-34
2023/03/14 12:05:46;;;;;;;9.30;2.40;;;9.80;99.90;;;;;;5053768;28;20044;-34
2023/03/14 12:08:38;;;;;;;7.88;1.88;;;10.20;99.90;;;;;;5026658;28;20127;-34
2023/03/14 12:11:15;;;;;;;12.65;2.60;;;10.40;99.90;;;;;;5063306;28;20390;-34
2023/03/14 12:13:47;;;;;;;7.72;1.83;;;10.20;99.90;;;;;;5073570;28;20178;-34
2023/03/14 12:16:33;;;;;;;11.15;2.20;;;9.80;99.90;;;;;;5073760;28;20086;-34
2023/03/14 12:19:19;;;;;;;9.90;2.08;;;9.60;99.90;;;;;;5069385;28;20371;-34
2023/03/14 12:21:51;;;;;;;6.60;2.03;;;10.20;99.90;;;;;;5053785;28;20497;-34
2023/03/14 12:24:21;;;;;;;6.95;1.30;;;11.10;99.90;;;;;;5057506;28;20093;-34
2023/03/14 12:26:56;;;;;;;4.28;2.30;;;11.60;99.90;;;;;;5076966;28;20174;-34
2023/03/14 12:29:22;;;;;;;7.45;1.42;;;11.50;99.90;;;;;;5079943;28;20032;-34
2023/03/14 12:32:00;;;;;;;4.57;1.33;;;11.80;99.90;;;;;;5071683;28;20546;-34
2023/03/14 12:34:31;;;;;;;4.53;1.20;;;12.10;79.50;;;;;;5058929;28;20495;-34
2023/03/14 12:37:24;;;;;;;6.05;1.20;;;13.00;99.90;;;;;;5082673;28;20043;-34
2023/03/14 12:40:18;;;;;;;6.35;1.50;;;13.90;99.90;;;;;;5054906;28;20033;-34
2023/03/14 12:42:59;;;;;;;7.13;1.60;;;14.40;76.40;;;;;;5080445;28;20042;-34
2023/03/14 12:45:35;;;;;;;7.53;1.60;;;13.90;99.90;;;;;;5060932;28;20037;-34
2023/03/14 12:48:07;;;;;;;4.90;1.35;;;13.10;82.50;;;;;;5072673;28;20048;-34
2023/03/14 12:50:45;;;;;;;4.47;1.50;;;12.80;99.90;;;;;;5056002;28;20422;-35
2023/03/14 12:53:32;;;;;;;5.78;1.40;;;13.10;71.50;;;;;;5073309;28;20062;-35
2023/03/14 12:56:06;;;;;;;4.47;1.15;;;14.00;81.10;;;;;;5075828;28;20040;-35
2023/03/14 12:58:39;;;;;;;4.20;1.25;;;14.80;93.50;;;;;;5076189;28;20035;-34
2023/03/14 13:01:14;;;;;;;4.97;1.40;;;15.20;99.90;;;;;;5072041;28;20525;-34
2023/03/14 13:03:56;;;;;;;4.72;1.25;;;15.20;99.90;;;;;;5052470;28;20044;-34